Time;durP1;ratioP1;P1;durP2;ratioP2;P2;SDS_P1;SDS_P2;PMS_P1;PMS_P2;Temp;Humidity;BMP_temperature;BMP_pressure;BME280_temperature;BME280_humidity;BME280_pressure;Samples;Min_cycle;Max_cycle;Signal;HPM_P1;HPM_P2
2022/03/07 00:01:33;;;;;;;9.80;5.73;;;;;;;;;;5052385;28;20307;-65
2022/03/07 00:03:59;;;;;;;12.67;6.63;;;;;;;;;;5051799;28;20080;-65
2022/03/07 00:06:25;;;;;;;12.23;7.60;;;;;;;;;;5052173;28;20645;-65
2022/03/07 00:08:51;;;;;;;9.33;6.07;;;;;;;;;;5052271;28;20291;-65
2022/03/07 00:11:17;;;;;;;11.50;6.67;;;;;;;;;;5051610;28;20294;-65
2022/03/07 00:13:44;;;;;;;13.07;6.47;;;;;;;;;;5051518;28;20809;-64
2022/03/07 00:16:10;;;;;;;16.70;7.37;;;;;;;;;;5052263;28;20417;-64
2022/03/07 00:18:36;;;;;;;13.13;7.77;;;;;;;;;;5051982;28;20651;-65
2022/03/07 00:21:02;;;;;;;18.53;9.53;;;;;;;;;;5051645;28;20310;-65
2022/03/07 00:23:28;;;;;;;18.23;7.57;;;;;;;;;;5052058;28;20298;-65
2022/03/07 00:25:54;;;;;;;13.67;7.17;;;;;;;;;;5051768;28;20290;-65
2022/03/07 00:28:20;;;;;;;12.13;6.90;;;;;;;;;;5052060;28;20337;-65
2022/03/07 00:30:47;;;;;;;14.20;7.60;;;;;;;;;;5067053;28;20394;-65
2022/03/07 00:33:15;;;;;;;12.83;6.67;;;;;;;;;;5049725;28;20296;-64
2022/03/07 00:35:41;;;;;;;12.53;7.30;;;;;;;;;;5030525;28;20307;-64
2022/03/07 00:38:07;;;;;;;12.67;6.87;;;;;;;;;;5030437;28;20280;-64
2022/03/07 00:40:33;;;;;;;13.30;6.50;;;;;;;;;;5030858;28;20316;-64
2022/03/07 00:42:59;;;;;;;12.60;6.93;;;;;;;;;;5029588;28;20668;-64
2022/03/07 00:45:25;;;;;;;11.80;6.50;;;;;;;;;;5030220;28;20738;-64
2022/03/07 00:47:51;;;;;;;13.70;6.23;;;;;;;;;;5030418;28;20295;-64
2022/03/07 00:50:17;;;;;;;11.67;6.50;;;;;;;;;;5048669;28;20291;-65
2022/03/07 00:52:44;;;;;;;10.77;5.80;;;;;;;;;;5049805;28;20627;-65
2022/03/07 00:55:10;;;;;;;13.90;6.53;;;;;;;;;;5049740;28;20284;-64
2022/03/07 00:57:37;;;;;;;15.67;8.37;;;;;;;;;;5048951;28;20350;-65
2022/03/07 01:00:03;;;;;;;18.60;8.47;;;;;;;;;;5048629;28;20713;-64
2022/03/07 01:02:29;;;;;;;17.33;8.43;;;;;;;;;;5050350;28;20280;-64
2022/03/07 01:04:55;;;;;;;19.10;9.43;;;;;;;;;;5048846;28;20333;-64
2022/03/07 01:07:21;;;;;;;22.40;10.33;;;;;;;;;;5050661;28;20373;-64
2022/03/07 01:09:47;;;;;;;18.87;10.13;;;;;;;;;;5049547;28;20288;-64
2022/03/07 01:12:13;;;;;;;17.83;9.20;;;;;;;;;;5049419;28;20287;-64
2022/03/07 01:14:40;;;;;;;15.13;9.17;;;;;;;;;;5049280;28;20283;-64
2022/03/07 01:17:06;;;;;;;19.13;10.20;;;;;;;;;;5046969;28;20345;-64
2022/03/07 01:19:32;;;;;;;19.67;10.23;;;;;;;;;;5049605;28;20287;-64
2022/03/07 01:21:58;;;;;;;19.50;10.20;;;;;;;;;;5049608;28;20310;-64
2022/03/07 01:24:24;;;;;;;18.53;10.30;;;;;;;;;;5049717;28;20283;-64
2022/03/07 01:26:50;;;;;;;24.77;10.23;;;;;;;;;;5049538;28;20370;-64
2022/03/07 01:29:16;;;;;;;18.43;10.03;;;;;;;;;;5049609;28;20365;-64
2022/03/07 01:31:42;;;;;;;17.50;10.00;;;;;;;;;;5013255;28;1048639;-64
2022/03/07 01:34:08;;;;;;;19.10;8.10;;;;;;;;;;5050329;28;20126;-64
2022/03/07 01:36:35;;;;;;;10.27;5.40;;;;;;;;;;5032120;28;20293;-64
2022/03/07 01:39:01;;;;;;;11.93;6.80;;;;;;;;;;5030186;28;20387;-64
2022/03/07 01:41:27;;;;;;;13.03;7.57;;;;;;;;;;5048206;28;20369;-64
2022/03/07 01:43:53;;;;;;;15.63;7.33;;;;;;;;;;5050408;28;20287;-64
2022/03/07 01:46:19;;;;;;;12.97;6.97;;;;;;;;;;5050432;28;20442;-64
2022/03/07 01:48:45;;;;;;;14.57;7.93;;;;;;;;;;5050527;28;20284;-65
2022/03/07 01:51:13;;;;;;;11.73;6.67;;;;;;;;;;5049931;28;20280;-64
2022/03/07 01:53:39;;;;;;;13.37;6.43;;;;;;;;;;5050262;28;20294;-64
2022/03/07 01:56:06;;;;;;;13.07;6.43;;;;;;;;;;5049640;28;20310;-64
2022/03/07 01:58:32;;;;;;;15.03;6.73;;;;;;;;;;5049747;28;20295;-64
2022/03/07 02:00:59;;;;;;;13.97;6.67;;;;;;;;;;5049094;28;20655;-64
2022/03/07 02:03:25;;;;;;;15.07;6.80;;;;;;;;;;5048914;28;20321;-64
2022/03/07 02:05:51;;;;;;;15.50;7.23;;;;;;;;;;5050022;28;20305;-64
2022/03/07 02:08:17;;;;;;;12.83;6.93;;;;;;;;;;5049964;28;20774;-64
2022/03/07 02:10:43;;;;;;;12.80;6.60;;;;;;;;;;5049406;28;20389;-64
2022/03/07 02:13:10;;;;;;;9.73;5.93;;;;;;;;;;5049164;28;20337;-64
2022/03/07 02:15:36;;;;;;;16.10;7.00;;;;;;;;;;5048304;28;20295;-65
2022/03/07 02:18:02;;;;;;;13.37;7.17;;;;;;;;;;5049352;28;20299;-64
2022/03/07 02:20:28;;;;;;;16.97;7.60;;;;;;;;;;5049693;28;20296;-64
2022/03/07 02:22:54;;;;;;;12.43;6.60;;;;;;;;;;5049764;28;20661;-64
2022/03/07 02:25:20;;;;;;;14.47;6.50;;;;;;;;;;5048529;28;20295;-64
2022/03/07 02:27:46;;;;;;;13.37;6.63;;;;;;;;;;5046719;28;20275;-64
2022/03/07 02:30:12;;;;;;;12.73;6.77;;;;;;;;;;5029805;28;20049;-64
2022/03/07 02:32:41;;;;;;;12.03;6.20;;;;;;;;;;5029529;28;20353;-64
2022/03/07 02:35:07;;;;;;;13.33;6.67;;;;;;;;;;5029555;28;20276;-64
2022/03/07 02:37:33;;;;;;;11.67;6.43;;;;;;;;;;5048393;28;20829;-64
2022/03/07 02:39:59;;;;;;;13.03;7.03;;;;;;;;;;5049040;28;20409;-64
2022/03/07 02:42:25;;;;;;;12.87;7.33;;;;;;;;;;5047544;28;20294;-65
2022/03/07 02:44:51;;;;;;;15.17;7.97;;;;;;;;;;5040415;28;20291;-64
2022/03/07 02:47:17;;;;;;;18.00;9.57;;;;;;;;;;5049162;28;20287;-64
2022/03/07 02:49:43;;;;;;;16.80;8.43;;;;;;;;;;5048969;28;20287;-64
2022/03/07 02:52:09;;;;;;;15.83;7.97;;;;;;;;;;5049060;28;20276;-64
2022/03/07 02:54:36;;;;;;;13.83;7.90;;;;;;;;;;5048917;28;20777;-64
2022/03/07 02:57:02;;;;;;;13.37;7.87;;;;;;;;;;5049002;28;20337;-64
2022/03/07 02:59:28;;;;;;;16.97;7.57;;;;;;;;;;5048819;28;20284;-64
2022/03/07 03:01:54;;;;;;;13.73;6.67;;;;;;;;;;5048673;28;20300;-64
2022/03/07 03:04:20;;;;;;;12.37;7.23;;;;;;;;;;5049190;28;20283;-64
2022/03/07 03:06:46;;;;;;;15.30;8.13;;;;;;;;;;5049074;28;20280;-64
2022/03/07 03:09:12;;;;;;;14.27;8.50;;;;;;;;;;5048943;28;20333;-64
2022/03/07 03:11:38;;;;;;;12.80;7.63;;;;;;;;;;5048758;28;20049;-64
2022/03/07 03:14:06;;;;;;;15.83;9.03;;;;;;;;;;5048893;28;20041;-64
2022/03/07 03:16:32;;;;;;;19.37;9.53;;;;;;;;;;5048787;28;20368;-64
2022/03/07 03:18:58;;;;;;;13.53;7.97;;;;;;;;;;5048464;28;20291;-64
2022/03/07 03:21:24;;;;;;;14.83;8.77;;;;;;;;;;5048399;28;20313;-64
2022/03/07 03:23:50;;;;;;;15.67;7.83;;;;;;;;;;5048390;28;20041;-64
2022/03/07 03:26:16;;;;;;;16.60;8.67;;;;;;;;;;5048614;28;20348;-64
2022/03/07 03:28:42;;;;;;;15.83;8.27;;;;;;;;;;5046942;28;21088;-64
2022/03/07 03:31:11;;;;;;;16.33;8.60;;;;;;;;;;5047620;28;20053;-64
2022/03/07 03:33:38;;;;;;;20.03;8.03;;;;;;;;;;5047855;28;20623;-64
2022/03/07 03:36:04;;;;;;;17.57;8.77;;;;;;;;;;5047497;28;20327;-64
2022/03/07 03:38:30;;;;;;;15.20;8.70;;;;;;;;;;5048706;28;20650;-64
2022/03/07 03:40:56;;;;;;;13.60;7.40;;;;;;;;;;5048451;28;20307;-64
2022/03/07 03:43:22;;;;;;;17.33;8.50;;;;;;;;;;5048634;28;20366;-65
2022/03/07 03:45:48;;;;;;;18.57;7.53;;;;;;;;;;5048750;28;20049;-64
2022/03/07 03:48:15;;;;;;;19.00;8.90;;;;;;;;;;5048181;28;20288;-64
2022/03/07 03:50:41;;;;;;;19.27;9.90;;;;;;;;;;5047819;28;20291;-65
2022/03/07 03:53:07;;;;;;;24.73;10.67;;;;;;;;;;5048551;28;21331;-64
2022/03/07 03:55:33;;;;;;;22.43;10.10;;;;;;;;;;5048236;28;20297;-64
2022/03/07 03:57:59;;;;;;;21.53;10.93;;;;;;;;;;5047984;28;20292;-64
2022/03/07 04:00:25;;;;;;;20.20;10.20;;;;;;;;;;5045267;28;20822;-64
2022/03/07 04:02:51;;;;;;;19.93;11.00;;;;;;;;;;5048494;28;20291;-64
2022/03/07 04:05:17;;;;;;;22.17;10.77;;;;;;;;;;5046982;28;20363;-65
2022/03/07 04:07:44;;;;;;;17.83;9.83;;;;;;;;;;5048342;28;20367;-64
2022/03/07 04:10:13;;;;;;;16.17;8.67;;;;;;;;;;5048147;28;20345;-64
2022/03/07 04:12:39;;;;;;;25.23;9.87;;;;;;;;;;5041782;28;20287;-64
2022/03/07 04:15:05;;;;;;;21.30;9.23;;;;;;;;;;5047748;28;20272;-64
2022/03/07 04:17:32;;;;;;;14.60;7.23;;;;;;;;;;5048313;28;20280;-64
2022/03/07 04:19:58;;;;;;;9.70;5.57;;;;;;;;;;5048230;28;20280;-64
2022/03/07 04:22:24;;;;;;;11.47;6.30;;;;;;;;;;5046504;28;20312;-64
2022/03/07 04:24:50;;;;;;;18.30;8.40;;;;;;;;;;5050443;28;20300;-64
2022/03/07 04:27:16;;;;;;;21.07;10.30;;;;;;;;;;5051861;28;21207;-64
2022/03/07 04:29:42;;;;;;;15.00;6.43;;;;;;;;;;5051835;28;20785;-64
2022/03/07 04:32:08;;;;;;;11.97;6.53;;;;;;;;;;5051847;28;20789;-64
2022/03/07 04:34:34;;;;;;;15.97;7.47;;;;;;;;;;5051443;28;20294;-64
2022/03/07 04:37:00;;;;;;;7.30;4.10;;;;;;;;;;5050768;28;20276;-65
2022/03/07 04:39:27;;;;;;;8.30;4.33;;;;;;;;;;5049307;28;20276;-64
2022/03/07 04:41:53;;;;;;;8.87;5.03;;;;;;;;;;5048984;28;20872;-64
2022/03/07 04:44:19;;;;;;;15.47;7.77;;;;;;;;;;5050173;28;20323;-64
2022/03/07 04:46:45;;;;;;;16.70;8.17;;;;;;;;;;5050596;28;20307;-64
2022/03/07 04:49:11;;;;;;;15.43;7.50;;;;;;;;;;5042765;28;20284;-64
2022/03/07 04:51:40;;;;;;;14.03;7.50;;;;;;;;;;5030149;28;20341;-64
2022/03/07 04:54:06;;;;;;;17.20;9.13;;;;;;;;;;5031481;28;20323;-64
2022/03/07 04:56:33;;;;;;;17.03;8.53;;;;;;;;;;5051008;28;20319;-64
2022/03/07 04:58:59;;;;;;;19.60;8.40;;;;;;;;;;5051398;28;20286;-64
2022/03/07 05:01:25;;;;;;;23.07;8.60;;;;;;;;;;5050349;28;20322;-64
2022/03/07 05:03:51;;;;;;;16.70;7.80;;;;;;;;;;5051575;28;20283;-64
2022/03/07 05:06:17;;;;;;;17.50;8.23;;;;;;;;;;5050115;28;20296;-64
2022/03/07 05:08:43;;;;;;;18.33;9.30;;;;;;;;;;5050743;28;20312;-65
2022/03/07 05:11:09;;;;;;;19.57;8.17;;;;;;;;;;5033886;28;20280;-64
2022/03/07 05:13:35;;;;;;;14.83;8.03;;;;;;;;;;5036739;28;21093;-64
2022/03/07 05:16:03;;;;;;;20.53;9.43;;;;;;;;;;5050533;28;20275;-64
2022/03/07 05:18:29;;;;;;;17.83;8.20;;;;;;;;;;5051272;28;20284;-64
2022/03/07 05:20:55;;;;;;;16.97;8.90;;;;;;;;;;5050844;28;20339;-64
2022/03/07 05:23:21;;;;;;;20.37;10.07;;;;;;;;;;5050299;28;20294;-64
2022/03/07 05:25:47;;;;;;;20.40;9.47;;;;;;;;;;5049543;28;20680;-64
2022/03/07 05:28:13;;;;;;;14.97;8.50;;;;;;;;;;5050976;28;20855;-64
2022/03/07 05:30:39;;;;;;;18.03;9.10;;;;;;;;;;5050678;28;20287;-64
2022/03/07 05:33:05;;;;;;;17.87;9.33;;;;;;;;;;5049523;28;20362;-64
2022/03/07 05:35:31;;;;;;;18.33;10.23;;;;;;;;;;5049450;28;20383;-64
2022/03/07 05:37:57;;;;;;;16.37;8.50;;;;;;;;;;5037995;28;20291;-64
2022/03/07 05:40:23;;;;;;;19.07;9.70;;;;;;;;;;5030512;28;20361;-64
2022/03/07 05:42:49;;;;;;;20.53;11.00;;;;;;;;;;5030417;28;20371;-64
2022/03/07 05:45:15;;;;;;;20.83;11.10;;;;;;;;;;5033846;28;20291;-64
2022/03/07 05:47:42;;;;;;;20.23;10.83;;;;;;;;;;5050666;28;20279;-65
2022/03/07 05:50:08;;;;;;;22.37;10.27;;;;;;;;;;5049556;28;20675;-64
2022/03/07 05:52:35;;;;;;;16.03;8.93;;;;;;;;;;5049619;28;20291;-65
2022/03/07 05:55:01;;;;;;;23.63;12.03;;;;;;;;;;5049946;28;20311;-64
2022/03/07 05:57:27;;;;;;;28.00;11.40;;;;;;;;;;5048714;28;20626;-64
2022/03/07 05:59:53;;;;;;;23.20;11.97;;;;;;;;;;5049989;28;20332;-64
2022/03/07 06:02:19;;;;;;;23.17;11.70;;;;;;;;;;5049172;28;20314;-64
2022/03/07 06:04:45;;;;;;;19.60;9.80;;;;;;;;;;5050125;28;20298;-64
2022/03/07 06:07:11;;;;;;;17.73;9.10;;;;;;;;;;5049484;28;20341;-64
2022/03/07 06:09:37;;;;;;;19.77;9.23;;;;;;;;;;5049942;28;20662;-64
2022/03/07 06:12:05;;;;;;;21.07;10.33;;;;;;;;;;5049580;28;20703;-64
2022/03/07 06:14:31;;;;;;;21.30;10.07;;;;;;;;;;5049431;28;20283;-64
2022/03/07 06:16:57;;;;;;;20.07;10.47;;;;;;;;;;5049666;28;20275;-64
2022/03/07 06:19:23;;;;;;;18.60;10.17;;;;;;;;;;5049506;28;20288;-64
2022/03/07 06:21:49;;;;;;;21.93;10.43;;;;;;;;;;5048497;28;20358;-65
2022/03/07 06:24:15;;;;;;;18.37;11.20;;;;;;;;;;5049323;28;20287;-64
2022/03/07 06:26:41;;;;;;;24.33;10.83;;;;;;;;;;5048270;28;20353;-64
2022/03/07 06:29:07;;;;;;;18.37;9.87;;;;;;;;;;5045739;28;20295;-64
2022/03/07 06:31:33;;;;;;;24.50;12.53;;;;;;;;;;5049502;28;20110;-64
2022/03/07 06:33:59;;;;;;;19.47;11.20;;;;;;;;;;5048762;28;20056;-64
2022/03/07 06:36:25;;;;;;;17.07;10.13;;;;;;;;;;5048788;28;20407;-65
2022/03/07 06:38:51;;;;;;;27.03;12.00;;;;;;;;;;5047515;28;20299;-64
2022/03/07 06:41:17;;;;;;;24.53;12.73;;;;;;;;;;5048856;28;20338;-64
2022/03/07 06:43:43;;;;;;;24.93;11.63;;;;;;;;;;5049263;28;20106;-64
2022/03/07 06:46:09;;;;;;;30.10;13.47;;;;;;;;;;5048576;28;20088;-65
2022/03/07 06:48:36;;;;;;;22.93;12.67;;;;;;;;;;5047417;28;21027;-65
2022/03/07 06:51:02;;;;;;;29.37;14.50;;;;;;;;;;5040544;28;20298;-65
2022/03/07 06:53:28;;;;;;;28.37;15.97;;;;;;;;;;5034622;28;20658;-64
2022/03/07 06:55:54;;;;;;;30.93;15.33;;;;;;;;;;5039722;28;20793;-64
2022/03/07 06:58:21;;;;;;;33.73;16.47;;;;;;;;;;5057220;28;20303;-65
2022/03/07 07:00:47;;;;;;;29.70;15.87;;;;;;;;;;5047511;28;20314;-64
2022/03/07 07:03:13;;;;;;;32.60;17.80;;;;;;;;;;5044295;28;20290;-64
2022/03/07 07:05:39;;;;;;;31.90;17.00;;;;;;;;;;5048038;28;20291;-64
2022/03/07 07:08:05;;;;;;;30.43;16.80;;;;;;;;;;5046238;28;20040;-65
2022/03/07 07:10:32;;;;;;;35.20;18.93;;;;;;;;;;5048208;28;20079;-64
2022/03/07 07:12:58;;;;;;;32.70;17.00;;;;;;;;;;5048040;28;20298;-65
2022/03/07 07:15:24;;;;;;;40.20;18.07;;;;;;;;;;5039255;28;20761;-64
2022/03/07 07:17:50;;;;;;;35.67;17.07;;;;;;;;;;5037727;28;20395;-63
2022/03/07 07:20:16;;;;;;;30.60;17.30;;;;;;;;;;5030276;28;21126;-63
2022/03/07 07:22:42;;;;;;;31.30;17.07;;;;;;;;;;5028777;28;20778;-63
2022/03/07 07:25:09;;;;;;;33.40;19.27;;;;;;;;;;5028812;28;20308;-63
2022/03/07 07:27:35;;;;;;;34.30;18.63;;;;;;;;;;5031304;28;20284;-63
2022/03/07 07:30:02;;;;;;;44.93;21.57;;;;;;;;;;5040047;28;20361;-63
2022/03/07 07:32:28;;;;;;;33.80;19.53;;;;;;;;;;5034808;28;20322;-63
2022/03/07 07:34:54;;;;;;;45.57;22.50;;;;;;;;;;5028286;28;20311;-63
2022/03/07 07:37:20;;;;;;;44.47;23.57;;;;;;;;;;5032395;28;20777;-63
2022/03/07 07:39:47;;;;;;;50.73;24.80;;;;;;;;;;5063869;28;20123;-63
2022/03/07 07:42:13;;;;;;;45.43;24.67;;;;;;;;;;5051455;28;20041;-63
2022/03/07 07:44:39;;;;;;;41.63;22.03;;;;;;;;;;5043566;28;20354;-63
2022/03/07 07:47:07;;;;;;;37.23;19.17;;;;;;;;;;5046519;28;20817;-63
2022/03/07 07:49:33;;;;;;;37.73;19.33;;;;;;;;;;5046945;28;20275;-64
2022/03/07 07:51:59;;;;;;;47.80;24.07;;;;;;;;;;5047586;28;20279;-64
2022/03/07 07:54:25;;;;;;;43.37;24.30;;;;;;;;;;5046597;28;20288;-63
2022/03/07 07:56:51;;;;;;;47.63;24.60;;;;;;;;;;5045964;28;20288;-63
2022/03/07 07:59:18;;;;;;;47.93;25.10;;;;;;;;;;5046273;28;20280;-63
2022/03/07 08:01:44;;;;;;;49.67;26.77;;;;;;;;;;5050409;28;20358;-63
2022/03/07 08:04:12;;;;;;;52.17;27.13;;;;;;;;;;5048153;28;20944;-63
2022/03/07 08:06:38;;;;;;;57.97;28.10;;;;;;;;;;5048101;28;20287;-64
2022/03/07 08:09:04;;;;;;;47.13;27.03;;;;;;;;;;5050995;28;20330;-64
2022/03/07 08:11:30;;;;;;;54.10;27.53;;;;;;;;;;5051768;28;20037;-64
2022/03/07 08:13:56;;;;;;;48.07;25.83;;;;;;;;;;5047774;28;20284;-64
2022/03/07 08:16:22;;;;;;;50.47;26.23;;;;;;;;;;5050906;28;20349;-64
2022/03/07 08:18:48;;;;;;;49.10;24.87;;;;;;;;;;5050931;28;20088;-64
2022/03/07 08:21:14;;;;;;;51.73;26.07;;;;;;;;;;5051635;28;20331;-64
2022/03/07 08:23:40;;;;;;;47.97;25.77;;;;;;;;;;5051375;28;20049;-64
2022/03/07 08:26:06;;;;;;;41.13;21.53;;;;;;;;;;5051205;28;20366;-64
2022/03/07 08:28:32;;;;;;;48.23;26.00;;;;;;;;;;5049259;28;20511;-64
2022/03/07 08:30:58;;;;;;;44.30;23.23;;;;;;;;;;5047888;28;20657;-64
2022/03/07 08:33:24;;;;;;;40.50;21.93;;;;;;;;;;5048279;28;20291;-64
2022/03/07 08:35:55;;;;;;;43.10;22.87;;;;;;;;;;5051866;28;20283;-64
2022/03/07 08:38:21;;;;;;;33.67;18.03;;;;;;;;;;5049593;28;20288;-64
2022/03/07 08:40:48;;;;;;;31.57;18.73;;;;;;;;;;5049787;28;20312;-64
2022/03/07 08:43:14;;;;;;;33.80;17.47;;;;;;;;;;5049121;28;20309;-64
2022/03/07 08:45:40;;;;;;;23.80;14.13;;;;;;;;;;5051069;28;20282;-64
2022/03/07 08:48:06;;;;;;;28.10;14.20;;;;;;;;;;5051121;28;20288;-64
2022/03/07 08:50:32;;;;;;;21.60;12.37;;;;;;;;;;5031121;28;20049;-64
2022/03/07 08:52:58;;;;;;;28.07;15.03;;;;;;;;;;5031256;28;20288;-64
2022/03/07 08:55:24;;;;;;;22.80;14.60;;;;;;;;;;5041743;28;20303;-64
2022/03/07 08:57:50;;;;;;;24.00;12.30;;;;;;;;;;5048898;28;20819;-65
2022/03/07 09:00:16;;;;;;;23.13;11.17;;;;;;;;;;5050218;28;20785;-65
2022/03/07 09:02:42;;;;;;;18.23;9.70;;;;;;;;;;5050928;28;20279;-65
2022/03/07 09:05:08;;;;;;;18.37;10.23;;;;;;;;;;5050586;28;20341;-64
2022/03/07 09:07:34;;;;;;;18.63;11.43;;;;;;;;;;5050921;28;20048;-65
2022/03/07 09:10:00;;;;;;;21.57;10.53;;;;;;;;;;5050020;28;21041;-64
2022/03/07 09:12:29;;;;;;;22.20;12.83;;;;;;;;;;5048822;28;20049;-64
2022/03/07 09:14:56;;;;;;;23.70;16.10;;;;;;;;;;5030335;28;20041;-65
2022/03/07 09:17:23;;;;;;;24.07;14.43;;;;;;;;;;5030678;28;20284;-64
2022/03/07 09:19:49;;;;;;;19.17;12.63;;;;;;;;;;5030737;28;20072;-64
2022/03/07 09:22:15;;;;;;;22.83;8.37;;;;;;;;;;5030142;28;20316;-64
2022/03/07 09:24:41;;;;;;;15.93;9.07;;;;;;;;;;5044711;28;20044;-65
2022/03/07 09:27:07;;;;;;;12.90;9.30;;;;;;;;;;5050363;28;20045;-64
2022/03/07 09:29:33;;;;;;;10.70;8.73;;;;;;;;;;5049950;28;20049;-65
2022/03/07 09:31:59;;;;;;;10.23;6.67;;;;;;;;;;5050279;28;20140;-65
2022/03/07 09:34:25;;;;;;;10.07;6.10;;;;;;;;;;5050528;28;20103;-64
2022/03/07 09:36:51;;;;;;;10.23;5.90;;;;;;;;;;5049899;28;20526;-64
2022/03/07 09:39:17;;;;;;;8.67;4.43;;;;;;;;;;5049123;28;20048;-64
2022/03/07 09:41:43;;;;;;;8.37;4.83;;;;;;;;;;5050129;28;20045;-65
2022/03/07 09:44:10;;;;;;;8.77;4.30;;;;;;;;;;5050067;28;20048;-65
2022/03/07 09:46:36;;;;;;;7.17;5.07;;;;;;;;;;5049912;28;20052;-64
2022/03/07 09:49:03;;;;;;;8.67;4.30;;;;;;;;;;5049610;28;20540;-64
2022/03/07 09:51:29;;;;;;;7.87;3.70;;;;;;;;;;5050073;28;20045;-65
2022/03/07 09:53:55;;;;;;;7.20;3.73;;;;;;;;;;5049353;28;20052;-65
2022/03/07 09:56:21;;;;;;;9.27;3.90;;;;;;;;;;5050134;28;20053;-65
2022/03/07 09:58:47;;;;;;;7.67;4.00;;;;;;;;;;5049368;28;20766;-65
2022/03/07 10:01:14;;;;;;;7.27;4.00;;;;;;;;;;5049853;28;20057;-65
2022/03/07 10:03:41;;;;;;;8.37;3.73;;;;;;;;;;5050186;28;20491;-65
2022/03/07 10:06:14;;;;;;;6.77;3.50;;;;;;;;;;5049283;28;20055;-65
2022/03/07 10:08:50;;;;;;;6.93;3.20;;;;;;;;;;5049196;28;20130;-65
2022/03/07 10:11:16;;;;;;;9.10;4.40;;;;;;;;;;5047799;28;20041;-65
2022/03/07 10:13:49;;;;;;;4.40;3.00;;;;;;;;;;5049635;28;20044;-63
2022/03/07 10:16:15;;;;;;;8.55;3.20;;;;;;;;;;5048152;28;20522;-63
2022/03/07 10:18:48;;;;;;;6.87;3.30;;;;;;;;;;5048916;28;20127;-65
2022/03/07 10:21:20;;;;;;;4.97;3.17;;;;;;;;;;5048386;28;20545;-65
2022/03/07 10:23:53;;;;;;;9.23;3.43;;;;;;;;;;5042936;28;20048;-65
2022/03/07 10:26:20;;;;;;;5.53;3.78;;;;;;;;;;5029083;28;20073;-65
2022/03/07 10:28:52;;;;;;;8.97;3.50;;;;;;;;;;5029357;28;20491;-65
2022/03/07 10:31:18;;;;;;;4.50;3.13;;;;;;;;;;5027379;28;20061;-65
2022/03/07 10:33:45;;;;;;;4.80;2.70;;;;;;;;;;5029350;28;20299;-65
2022/03/07 10:36:11;;;;;;;5.93;2.37;;;;;;;;;;5039290;28;20079;-65
2022/03/07 10:38:37;;;;;;;6.20;2.97;;;;;;;;;;5048894;28;20052;-65
2022/03/07 10:41:04;;;;;;;5.27;3.17;;;;;;;;;;5049082;28;20040;-65
2022/03/07 10:43:31;;;;;;;5.93;2.80;;;;;;;;;;5048945;28;20041;-65
2022/03/07 10:45:58;;;;;;;7.60;3.30;;;;;;;;;;5048681;28;20120;-65
2022/03/07 10:48:27;;;;;;;9.13;3.30;;;;;;;;;;5049106;28;20056;-65
2022/03/07 10:50:54;;;;;;;7.30;3.00;;;;;;;;;;5047950;28;20502;-65
2022/03/07 10:53:23;;;;;;;4.93;2.53;;;;;;;;;;5048433;28;20049;-65
2022/03/07 10:55:54;;;;;;;7.00;2.77;;;;;;;;;;5048174;28;20038;-65
2022/03/07 10:58:20;;;;;;;4.93;2.83;;;;;;;;;;5044106;28;20051;-65
2022/03/07 11:00:56;;;;;;;5.47;2.73;;;;;;;;;;5058833;28;20053;-65
2022/03/07 11:03:24;;;;;;;6.03;3.00;;;;;;;;;;5047464;28;20056;-65
2022/03/07 11:05:51;;;;;;;5.83;2.93;;;;;;;;;;5048289;28;20045;-65
2022/03/07 11:08:17;;;;;;;6.53;3.03;;;;;;;;;;5048818;28;20800;-65
2022/03/07 11:10:48;;;;;;;8.97;3.27;;;;;;;;;;5048332;28;20080;-65
2022/03/07 11:13:15;;;;;;;6.53;3.10;;;;;;;;;;5048113;28;20406;-65
2022/03/07 11:15:42;;;;;;;6.73;3.23;;;;;;;;;;5047280;28;20049;-65
2022/03/07 11:18:09;;;;;;;7.30;3.00;;;;;;;;;;5046271;28;20041;-65
2022/03/07 11:20:35;;;;;;;5.23;3.17;;;;;;;;;;5047767;28;20131;-65
2022/03/07 11:23:01;;;;;;;6.70;3.70;;;;;;;;;;5047728;28;20073;-65
2022/03/07 11:25:28;;;;;;;4.40;2.67;;;;;;;;;;5047796;28;20053;-65
2022/03/07 11:27:55;;;;;;;5.83;3.10;;;;;;;;;;5048125;28;20044;-65
2022/03/07 11:30:24;;;;;;;5.13;2.60;;;;;;;;;;5047392;28;20146;-65
2022/03/07 11:32:50;;;;;;;6.30;3.10;;;;;;;;;;5048167;28;20060;-63
2022/03/07 11:35:16;;;;;;;4.20;2.43;;;;;;;;;;5051271;28;20048;-64
2022/03/07 11:37:43;;;;;;;3.77;2.13;;;;;;;;;;5052370;28;20052;-64
2022/03/07 11:40:35;;;;;;;4.23;2.40;;;;;;;;;;5067642;28;20076;-64
2022/03/07 11:43:07;;;;;;;5.27;2.47;;;;;;;;;;5051101;28;20423;-64
2022/03/07 11:45:38;;;;;;;5.40;2.70;;;;;;;;;;5052421;28;20048;-64
2022/03/07 11:48:12;;;;;;;4.53;2.17;;;;;;;;;;5051358;28;20734;-64
2022/03/07 11:50:38;;;;;;;4.63;2.20;;;;;;;;;;5051966;28;20048;-64
2022/03/07 11:53:04;;;;;;;4.23;2.10;;;;;;;;;;5052056;28;20050;-64
2022/03/07 11:55:30;;;;;;;5.30;2.77;;;;;;;;;;5052137;28;20096;-64
2022/03/07 11:58:01;;;;;;;5.00;2.07;;;;;;;;;;5052284;28;20055;-64
2022/03/07 12:00:32;;;;;;;5.27;2.77;;;;;;;;;;5051891;28;20051;-64
2022/03/07 12:02:59;;;;;;;4.47;2.33;;;;;;;;;;5051574;28;20075;-64
2022/03/07 12:05:29;;;;;;;5.20;2.30;;;;;;;;;;5052052;28;20099;-64
2022/03/07 12:08:07;;;;;;;5.23;1.93;;;;;;;;;;5051896;28;20095;-64
2022/03/07 12:10:33;;;;;;;3.87;1.87;;;;;;;;;;5051892;28;20047;-64
2022/03/07 12:13:09;;;;;;;4.27;1.47;;;;;;;;;;5051967;28;20132;-64
2022/03/07 12:15:49;;;;;;;4.03;1.17;;;;;;;;;;5051751;28;20170;-64
2022/03/07 12:18:15;;;;;;;4.17;1.40;;;;;;;;;;5051281;28;20045;-64
2022/03/07 12:20:52;;;;;;;2.27;1.23;;;;;;;;;;5051630;28;20048;-64
2022/03/07 12:23:19;;;;;;;2.07;0.80;;;;;;;;;;5051748;28;20491;-64
2022/03/07 12:25:46;;;;;;;3.43;1.27;;;;;;;;;;5050328;28;20154;-64
2022/03/07 12:28:12;;;;;;;3.50;1.30;;;;;;;;;;5051465;28;20136;-64
2022/03/07 12:30:38;;;;;;;3.43;1.27;;;;;;;;;;5050844;28;20053;-64
2022/03/07 12:33:08;;;;;;;1.97;1.00;;;;;;;;;;5051644;28;20049;-64
2022/03/07 12:35:34;;;;;;;5.43;1.43;;;;;;;;;;5051374;28;20045;-64
2022/03/07 12:38:01;;;;;;;3.53;1.43;;;;;;;;;;5051365;28;20053;-64
2022/03/07 12:40:27;;;;;;;1.87;1.20;;;;;;;;;;5050790;28;20514;-64
2022/03/07 12:42:53;;;;;;;4.27;1.33;;;;;;;;;;5051327;28;20090;-64
2022/03/07 12:45:19;;;;;;;2.37;1.40;;;;;;;;;;5049926;28;20048;-64
2022/03/07 12:47:45;;;;;;;3.70;1.03;;;;;;;;;;5051274;28;20103;-64
2022/03/07 12:50:12;;;;;;;3.90;1.23;;;;;;;;;;5050860;28;20084;-65
2022/03/07 12:52:40;;;;;;;2.63;1.20;;;;;;;;;;5051126;28;20756;-64
2022/03/07 12:55:07;;;;;;;2.60;1.37;;;;;;;;;;5050902;28;20503;-64
2022/03/07 12:57:33;;;;;;;4.13;1.60;;;;;;;;;;5050963;28;20045;-65
2022/03/07 13:00:05;;;;;;;3.33;1.80;;;;;;;;;;5050590;28;20049;-64
2022/03/07 13:02:35;;;;;;;4.40;1.63;;;;;;;;;;5051233;28;20049;-64
2022/03/07 13:05:01;;;;;;;3.27;1.70;;;;;;;;;;5050850;28;20069;-64
2022/03/07 13:07:27;;;;;;;4.03;1.80;;;;;;;;;;5050852;28;20045;-64
2022/03/07 13:09:54;;;;;;;3.93;2.30;;;;;;;;;;5050966;28;20048;-64
2022/03/07 13:12:20;;;;;;;3.73;1.80;;;;;;;;;;5050420;28;20040;-64
2022/03/07 13:14:46;;;;;;;5.90;1.90;;;;;;;;;;5034178;28;20072;-65
2022/03/07 13:17:15;;;;;;;3.40;1.90;;;;;;;;;;5030609;28;20049;-64
2022/03/07 13:19:45;;;;;;;4.97;2.07;;;;;;;;;;5030522;28;20104;-65
2022/03/07 13:22:11;;;;;;;4.43;2.57;;;;;;;;;;5030241;28;20046;-64
2022/03/07 13:24:37;;;;;;;4.10;2.03;;;;;;;;;;5030369;28;20558;-64
2022/03/07 13:27:05;;;;;;;4.60;2.10;;;;;;;;;;5030475;28;20045;-64
2022/03/07 13:29:32;;;;;;;3.70;2.30;;;;;;;;;;5046730;28;20037;-64
2022/03/07 13:32:01;;;;;;;4.63;2.17;;;;;;;;;;5050273;28;20454;-65
2022/03/07 13:34:28;;;;;;;3.73;2.30;;;;;;;;;;5050157;28;20060;-64
2022/03/07 13:36:57;;;;;;;5.67;2.20;;;;;;;;;;5050057;28;20077;-64
2022/03/07 13:39:23;;;;;;;2.33;1.40;;;;;;;;;;5050412;28;20044;-65
2022/03/07 13:42:09;;;;;;;4.13;1.97;;;;;;;;;;5065718;28;20068;-64
2022/03/07 13:44:48;;;;;;;4.97;1.80;;;;;;;;;;5049172;28;20057;-64
2022/03/07 13:47:14;;;;;;;2.90;1.67;;;;;;;;;;5049934;28;20046;-64
2022/03/07 13:49:41;;;;;;;3.00;1.70;;;;;;;;;;5049547;28;20461;-64
2022/03/07 13:52:11;;;;;;;4.03;1.90;;;;;;;;;;5049842;28;20417;-65
2022/03/07 13:54:38;;;;;;;3.63;1.80;;;;;;;;;;5049715;28;20071;-64
2022/03/07 13:57:05;;;;;;;4.27;2.27;;;;;;;;;;5048812;28;20140;-64
2022/03/07 13:59:31;;;;;;;7.70;4.10;;;;;;;;;;5049439;28;20037;-64
2022/03/07 14:01:57;;;;;;;4.53;2.50;;;;;;;;;;5049898;28;20103;-65
2022/03/07 14:04:23;;;;;;;4.43;2.70;;;;;;;;;;5049124;28;20839;-64
2022/03/07 14:06:49;;;;;;;3.60;2.40;;;;;;;;;;5049666;28;20047;-65
2022/03/07 14:09:15;;;;;;;5.07;2.10;;;;;;;;;;5049754;28;20059;-64
2022/03/07 14:11:42;;;;;;;3.43;1.70;;;;;;;;;;5048946;28;20045;-65
2022/03/07 14:14:19;;;;;;;3.73;2.20;;;;;;;;;;5049228;28;20052;-64
2022/03/07 14:16:46;;;;;;;6.47;3.97;;;;;;;;;;5049559;28;20473;-64
2022/03/07 14:19:12;;;;;;;4.00;2.10;;;;;;;;;;5049604;28;20041;-64
2022/03/07 14:21:38;;;;;;;3.10;2.07;;;;;;;;;;5049431;28;20052;-64
2022/03/07 14:24:05;;;;;;;4.97;2.13;;;;;;;;;;5048891;28;20080;-64
2022/03/07 14:26:32;;;;;;;5.10;2.90;;;;;;;;;;5049379;28;20045;-64
2022/03/07 14:29:03;;;;;;;5.83;2.50;;;;;;;;;;5047599;28;20522;-64